Wetterdaten: aktuell Sonntag, 10.05.2026 19:50
Datum Zeit Temp. A. Feuchte A. Luftdruck Regen Wind Richtung Richtung Taupunkt Windchill Windböen
10.05.2026 19:50 17,2 °C 71 % 1007,8 hPa 0,0 mm 4,2 km/h (1 Bft) N-NW 333 ° 11,9 °C 17,2 °C 6,4 km/h (2 Bft)
10.05.2026 19:45 17,4 °C 70 % 1007,8 hPa 0,0 mm 4,4 km/h (1 Bft) N-NW 333 ° 11,9 °C 17,4 °C 8,0 km/h (2 Bft)
10.05.2026 19:40 17,5 °C 69 % 1007,9 hPa 0,0 mm 5,2 km/h (1 Bft) N-NW 334 ° 11,7 °C 17,5 °C 9,7 km/h (2 Bft)
10.05.2026 19:35 17,7 °C 69 % 1007,9 hPa 0,0 mm 5,4 km/h (1 Bft) N-NW 331 ° 11,9 °C 17,7 °C 8,0 km/h (2 Bft)
10.05.2026 19:30 17,8 °C 68 % 1008,1 hPa 0,0 mm 4,9 km/h (1 Bft) N-NW 327 ° 11,8 °C 17,8 °C 9,7 km/h (2 Bft)
10.05.2026 19:25 17,9 °C 68 % 1008,1 hPa 0,0 mm 5,1 km/h (1 Bft) N-NW 329 ° 11,9 °C 17,9 °C 9,7 km/h (2 Bft)
10.05.2026 19:20 18,1 °C 67 % 1008,2 hPa 0,0 mm 5,7 km/h (1 Bft) NW 326 ° 11,9 °C 18,1 °C 9,7 km/h (2 Bft)
10.05.2026 19:15 18,2 °C 67 % 1008,2 hPa 0,0 mm 5,2 km/h (1 Bft) N-NW 327 ° 12,0 °C 18,2 °C 9,7 km/h (2 Bft)
10.05.2026 19:10 18,4 °C 67 % 1008,1 hPa 0,0 mm 4,8 km/h (1 Bft) NW 325 ° 12,2 °C 18,4 °C 12,9 km/h (3 Bft)
10.05.2026 19:05 18,7 °C 67 % 1008,2 hPa 0,0 mm 4,5 km/h (1 Bft) N-NW 328 ° 12,4 °C 18,7 °C 8,0 km/h (2 Bft)
10.05.2026 19:00 18,8 °C 68 % 1008,2 hPa 0,0 mm 3,3 km/h (1 Bft) N-NW 346 ° 12,8 °C 18,8 °C 6,4 km/h (2 Bft)
10.05.2026 18:55 19,0 °C 66 % 1008,3 hPa 0,0 mm 3,5 km/h (1 Bft) N-NW 347 ° 12,5 °C 19,0 °C 8,0 km/h (2 Bft)
10.05.2026 18:50 19,2 °C 65 % 1008,3 hPa 0,0 mm 2,1 km/h (1 Bft) N-NW 348 ° 12,5 °C 19,2 °C 4,8 km/h (1 Bft)
10.05.2026 18:45 19,3 °C 65 % 1008,2 hPa 0,0 mm 1,9 km/h (1 Bft) N 349 ° 12,6 °C 19,3 °C 4,8 km/h (1 Bft)
10.05.2026 18:40 19,3 °C 64 % 1008,2 hPa 0,0 mm 1,2 km/h (1 Bft) N-NW 346 ° 12,3 °C 19,3 °C 4,8 km/h (1 Bft)
10.05.2026 18:35 19,4 °C 64 % 1008,3 hPa 0,0 mm 2,1 km/h (1 Bft) N-NW 344 ° 12,4 °C 19,4 °C 4,8 km/h (1 Bft)
10.05.2026 18:30 19,6 °C 63 % 1008,2 hPa 0,0 mm 2,6 km/h (1 Bft) N-NW 342 ° 12,4 °C 19,6 °C 8,0 km/h (2 Bft)
10.05.2026 18:25 19,6 °C 64 % 1008,4 hPa 0,0 mm 2,4 km/h (1 Bft) NW 304 ° 12,6 °C 19,6 °C 8,0 km/h (2 Bft)
10.05.2026 18:20 19,6 °C 63 % 1008,3 hPa 0,0 mm 2,7 km/h (1 Bft) N-NW 345 ° 12,4 °C 19,6 °C 6,4 km/h (2 Bft)
10.05.2026 18:15 19,7 °C 63 % 1008,3 hPa 0,0 mm 3,2 km/h (1 Bft) N-NW 347 ° 12,5 °C 19,7 °C 8,0 km/h (2 Bft)
10.05.2026 18:10 19,8 °C 61 % 1008,3 hPa 0,0 mm 4,4 km/h (1 Bft) N-NO 32 ° 12,1 °C 19,8 °C 9,7 km/h (2 Bft)
10.05.2026 18:05 19,8 °C 60 % 1008,3 hPa 0,0 mm 5,4 km/h (1 Bft) NO 46 ° 11,8 °C 19,8 °C 11,3 km/h (2 Bft)
10.05.2026 18:00 19,9 °C 61 % 1008,3 hPa 0,0 mm 4,4 km/h (1 Bft) N-NO 21 ° 12,2 °C 19,9 °C 12,9 km/h (3 Bft)
10.05.2026 17:55 20,0 °C 61 % 1008,4 hPa 0,0 mm 4,0 km/h (1 Bft) N-NO 15 ° 12,2 °C 20,0 °C 8,0 km/h (2 Bft)
10.05.2026 17:50 20,1 °C 60 % 1008,4 hPa 0,0 mm 3,3 km/h (1 Bft) N 5 ° 12,1 °C 20,1 °C 6,4 km/h (2 Bft)
10.05.2026 17:45 20,1 °C 59 % 1008,5 hPa 0,0 mm 4,2 km/h (1 Bft) N 360 ° 11,8 °C 20,1 °C 9,7 km/h (2 Bft)
10.05.2026 17:40 20,1 °C 60 % 1008,6 hPa 0,0 mm 2,6 km/h (1 Bft) N 360 ° 12,1 °C 20,1 °C 9,7 km/h (2 Bft)
10.05.2026 17:35 20,1 °C 59 % 1008,6 hPa 0,0 mm 3,9 km/h (1 Bft) NO 36 ° 11,8 °C 20,1 °C 8,0 km/h (2 Bft)
10.05.2026 17:30 20,1 °C 60 % 1008,7 hPa 0,0 mm 3,2 km/h (1 Bft) N 9 ° 12,1 °C 20,1 °C 6,4 km/h (2 Bft)
10.05.2026 17:25 20,1 °C 60 % 1008,7 hPa 0,0 mm 5,0 km/h (1 Bft) N 5 ° 12,1 °C 20,1 °C 12,9 km/h (3 Bft)
10.05.2026 17:20 20,2 °C 58 % 1008,9 hPa 0,0 mm 4,5 km/h (1 Bft) N 351 ° 11,7 °C 20,2 °C 9,7 km/h (2 Bft)
10.05.2026 17:15 20,2 °C 59 % 1009,1 hPa 0,0 mm 4,1 km/h (1 Bft) N 5 ° 11,9 °C 20,2 °C 8,0 km/h (2 Bft)
10.05.2026 17:10 20,2 °C 58 % 1009,1 hPa 0,0 mm 5,8 km/h (2 Bft) N-NO 15 ° 11,7 °C 20,2 °C 14,5 km/h (3 Bft)
10.05.2026 17:05 20,3 °C 59 % 1009,2 hPa 0,0 mm 4,5 km/h (1 Bft) N-NO 13 ° 12,0 °C 20,3 °C 8,0 km/h (2 Bft)
10.05.2026 17:00 20,3 °C 57 % 1009,3 hPa 0,0 mm 3,1 km/h (1 Bft) N 360 ° 11,5 °C 20,3 °C 6,4 km/h (2 Bft)
10.05.2026 16:55 20,2 °C 58 % 1009,5 hPa 0,0 mm 5,8 km/h (2 Bft) N 355 ° 11,7 °C 20,2 °C 12,9 km/h (3 Bft)
10.05.2026 16:50 20,3 °C 59 % 1009,6 hPa 0,0 mm 5,4 km/h (1 Bft) N-NW 342 ° 12,0 °C 20,3 °C 12,9 km/h (3 Bft)
10.05.2026 16:45 20,4 °C 59 % 1009,7 hPa 0,0 mm 3,7 km/h (1 Bft) N-NO 32 ° 12,1 °C 20,4 °C 8,0 km/h (2 Bft)
10.05.2026 16:40 20,3 °C 57 % 1009,8 hPa 0,0 mm 4,5 km/h (1 Bft) NO 34 ° 11,5 °C 20,3 °C 14,5 km/h (3 Bft)
10.05.2026 16:35 20,4 °C 59 % 1009,8 hPa 0,0 mm 5,1 km/h (1 Bft) N 350 ° 12,1 °C 20,4 °C 9,7 km/h (2 Bft)
10.05.2026 16:30 20,4 °C 58 % 1009,9 hPa 0,0 mm 6,7 km/h (2 Bft) O-NO 57 ° 11,9 °C 20,3 °C 16,1 km/h (3 Bft)
10.05.2026 16:25 20,6 °C 58 % 1010,0 hPa 0,0 mm 6,3 km/h (2 Bft) N-NW 344 ° 12,0 °C 20,6 °C 19,3 km/h (3 Bft)
10.05.2026 16:20 20,5 °C 57 % 1010,0 hPa 0,0 mm 5,7 km/h (1 Bft) N 5 ° 11,7 °C 20,5 °C 12,9 km/h (3 Bft)
10.05.2026 16:15 20,6 °C 58 % 1010,0 hPa 0,0 mm 8,2 km/h (2 Bft) NW 313 ° 12,0 °C 19,9 °C 16,1 km/h (3 Bft)
10.05.2026 16:10 20,7 °C 58 % 1010,3 hPa 0,0 mm 5,2 km/h (1 Bft) N 360 ° 12,1 °C 20,7 °C 12,9 km/h (3 Bft)
10.05.2026 16:05 20,7 °C 58 % 1010,4 hPa 0,0 mm 4,1 km/h (1 Bft) NW 309 ° 12,1 °C 20,7 °C 12,9 km/h (3 Bft)
10.05.2026 16:00 20,6 °C 57 % 1010,5 hPa 0,0 mm 4,0 km/h (1 Bft) NW 309 ° 11,8 °C 20,6 °C 11,3 km/h (2 Bft)
10.05.2026 15:55 20,8 °C 56 % 1010,6 hPa 0,0 mm 5,5 km/h (1 Bft) N-NO 31 ° 11,7 °C 20,8 °C 14,5 km/h (3 Bft)
10.05.2026 15:50 21,0 °C 56 % 1010,8 hPa 0,0 mm 5,5 km/h (1 Bft) N-NO 24 ° 11,9 °C 21,0 °C 12,9 km/h (3 Bft)
10.05.2026 15:45 20,9 °C 56 % 1010,7 hPa 0,0 mm 3,8 km/h (1 Bft) N-NO 24 ° 11,8 °C 20,9 °C 12,9 km/h (3 Bft)
10.05.2026 15:40 20,7 °C 57 % 1010,7 hPa 0,0 mm 5,0 km/h (1 Bft) N-NO 15 ° 11,9 °C 20,7 °C 12,9 km/h (3 Bft)
10.05.2026 15:35 20,6 °C 58 % 1010,7 hPa 0,0 mm 5,6 km/h (1 Bft) N-NW 337 ° 12,0 °C 20,6 °C 12,9 km/h (3 Bft)
10.05.2026 15:30 20,5 °C 58 % 1010,8 hPa 0,0 mm 6,1 km/h (2 Bft) N-NO 17 ° 11,9 °C 20,5 °C 12,9 km/h (3 Bft)
10.05.2026 15:25 20,4 °C 57 % 1010,9 hPa 0,0 mm 5,1 km/h (1 Bft) N 360 ° 11,6 °C 20,4 °C 11,3 km/h (2 Bft)
10.05.2026 15:20 20,2 °C 58 % 1011,0 hPa 0,0 mm 5,0 km/h (1 Bft) NO 46 ° 11,7 °C 20,2 °C 11,3 km/h (2 Bft)
10.05.2026 15:15 20,2 °C 59 % 1011,1 hPa 0,0 mm 4,2 km/h (1 Bft) NW 315 ° 11,9 °C 20,2 °C 11,3 km/h (2 Bft)
10.05.2026 15:10 19,9 °C 61 % 1011,2 hPa 0,0 mm 5,7 km/h (1 Bft) W-NW 296 ° 12,2 °C 19,9 °C 14,5 km/h (3 Bft)
10.05.2026 15:05 19,7 °C 60 % 1011,2 hPa 0,0 mm 3,5 km/h (1 Bft) N-NW 336 ° 11,7 °C 19,7 °C 8,0 km/h (2 Bft)
10.05.2026 15:00 19,7 °C 60 % 1011,3 hPa 0,0 mm 6,4 km/h (2 Bft) N-NO 14 ° 11,7 °C 19,7 °C 16,1 km/h (3 Bft)
10.05.2026 14:55 19,8 °C 61 % 1011,2 hPa 0,0 mm 5,9 km/h (2 Bft) NW 323 ° 12,1 °C 19,8 °C 12,9 km/h (3 Bft)
10.05.2026 14:50 19,8 °C 61 % 1011,4 hPa 0,0 mm 6,5 km/h (2 Bft) N-NO 26 ° 12,1 °C 19,8 °C 14,5 km/h (3 Bft)
10.05.2026 14:45 19,8 °C 62 % 1011,4 hPa 0,0 mm 4,7 km/h (1 Bft) N 9 ° 12,3 °C 19,8 °C 9,7 km/h (2 Bft)
10.05.2026 14:40 19,7 °C 60 % 1011,5 hPa 0,0 mm 5,6 km/h (1 Bft) N-NO 32 ° 11,7 °C 19,7 °C 12,9 km/h (3 Bft)
10.05.2026 14:35 19,7 °C 62 % 1011,6 hPa 0,0 mm 5,2 km/h (1 Bft) N-NO 12 ° 12,2 °C 19,7 °C 11,3 km/h (2 Bft)
10.05.2026 14:30 19,7 °C 60 % 1011,6 hPa 0,0 mm 6,5 km/h (2 Bft) N 360 ° 11,7 °C 19,7 °C 12,9 km/h (3 Bft)
10.05.2026 14:25 19,8 °C 62 % 1011,8 hPa 0,0 mm 4,7 km/h (1 Bft) N-NW 344 ° 12,3 °C 19,8 °C 14,5 km/h (3 Bft)
10.05.2026 14:20 19,6 °C 61 % 1011,7 hPa 0,0 mm 5,3 km/h (1 Bft) N-NW 342 ° 11,9 °C 19,6 °C 9,7 km/h (2 Bft)
10.05.2026 14:15 19,6 °C 62 % 1011,8 hPa 0,0 mm 5,7 km/h (1 Bft) NW 304 ° 12,1 °C 19,6 °C 12,9 km/h (3 Bft)
10.05.2026 14:10 19,3 °C 63 % 1011,9 hPa 0,0 mm 5,2 km/h (1 Bft) N 355 ° 12,1 °C 19,3 °C 14,5 km/h (3 Bft)
10.05.2026 14:05 19,1 °C 63 % 1012,0 hPa 0,0 mm 5,0 km/h (1 Bft) N 5 ° 11,9 °C 19,1 °C 12,9 km/h (3 Bft)
10.05.2026 14:00 19,2 °C 64 % 1012,1 hPa 0,0 mm 5,1 km/h (1 Bft) NW 319 ° 12,2 °C 19,2 °C 12,9 km/h (3 Bft)
10.05.2026 13:55 19,1 °C 65 % 1012,1 hPa 0,0 mm 5,2 km/h (1 Bft) N 9 ° 12,4 °C 19,1 °C 11,3 km/h (2 Bft)
10.05.2026 13:50 18,9 °C 66 % 1012,2 hPa 0,0 mm 6,1 km/h (2 Bft) W-NW 297 ° 12,4 °C 18,9 °C 14,5 km/h (3 Bft)
10.05.2026 13:45 18,8 °C 64 % 1012,3 hPa 0,0 mm 3,7 km/h (1 Bft) N 5 ° 11,8 °C 18,8 °C 9,7 km/h (2 Bft)
10.05.2026 13:40 18,8 °C 65 % 1012,3 hPa 0,0 mm 5,6 km/h (1 Bft) N-NW 327 ° 12,1 °C 18,8 °C 14,5 km/h (3 Bft)
10.05.2026 13:35 18,7 °C 65 % 1012,4 hPa 0,0 mm 5,6 km/h (1 Bft) NW 321 ° 12,0 °C 18,7 °C 12,9 km/h (3 Bft)
10.05.2026 13:30 18,7 °C 66 % 1012,4 hPa 0,0 mm 5,8 km/h (2 Bft) N-NW 344 ° 12,2 °C 18,7 °C 14,5 km/h (3 Bft)
10.05.2026 13:25 18,6 °C 68 % 1012,6 hPa 0,0 mm 5,7 km/h (1 Bft) N-NW 330 ° 12,6 °C 18,6 °C 14,5 km/h (3 Bft)
10.05.2026 13:20 18,6 °C 68 % 1012,5 hPa 0,0 mm 5,9 km/h (2 Bft) N-NW 333 ° 12,6 °C 18,6 °C 14,5 km/h (3 Bft)
10.05.2026 13:15 18,6 °C 68 % 1012,6 hPa 0,0 mm 5,7 km/h (1 Bft) N-NW 344 ° 12,6 °C 18,6 °C 12,9 km/h (3 Bft)
10.05.2026 13:10 18,6 °C 69 % 1012,5 hPa 0,0 mm 2,8 km/h (1 Bft) N 355 ° 12,8 °C 18,6 °C 8,0 km/h (2 Bft)
10.05.2026 13:05 18,6 °C 68 % 1012,6 hPa 0,0 mm 5,0 km/h (1 Bft) N-NW 340 ° 12,6 °C 18,6 °C 12,9 km/h (3 Bft)
10.05.2026 13:00 18,6 °C 68 % 1012,6 hPa 0,0 mm 3,7 km/h (1 Bft) W 279 ° 12,6 °C 18,6 °C 11,3 km/h (2 Bft)
10.05.2026 12:55 18,4 °C 69 % 1012,6 hPa 0,0 mm 3,5 km/h (1 Bft) NW 315 ° 12,6 °C 18,4 °C 8,0 km/h (2 Bft)
10.05.2026 12:50 18,1 °C 68 % 1012,6 hPa 0,0 mm 2,3 km/h (1 Bft) NO 41 ° 12,1 °C 18,1 °C 8,0 km/h (2 Bft)
10.05.2026 12:45 17,9 °C 71 % 1012,5 hPa 0,0 mm 4,5 km/h (1 Bft) N-NW 329 ° 12,6 °C 17,9 °C 14,5 km/h (3 Bft)
10.05.2026 12:40 17,8 °C 71 % 1012,6 hPa 0,0 mm 4,1 km/h (1 Bft) N-NO 15 ° 12,5 °C 17,8 °C 11,3 km/h (2 Bft)
10.05.2026 12:35 17,7 °C 72 % 1012,6 hPa 0,0 mm 4,0 km/h (1 Bft) N 355 ° 12,6 °C 17,7 °C 12,9 km/h (3 Bft)
10.05.2026 12:30 17,6 °C 71 % 1012,7 hPa 0,0 mm 3,5 km/h (1 Bft) W-NW 302 ° 12,3 °C 17,6 °C 6,4 km/h (2 Bft)
10.05.2026 12:25 17,5 °C 73 % 1012,8 hPa 0,0 mm 4,1 km/h (1 Bft) W-NW 295 ° 12,6 °C 17,5 °C 8,0 km/h (2 Bft)
10.05.2026 12:20 17,3 °C 73 % 1012,8 hPa 0,0 mm 4,8 km/h (1 Bft) N-NW 329 ° 12,4 °C 17,3 °C 12,9 km/h (3 Bft)
10.05.2026 12:15 17,3 °C 74 % 1012,9 hPa 0,0 mm 4,6 km/h (1 Bft) N-NW 330 ° 12,6 °C 17,3 °C 9,7 km/h (2 Bft)
10.05.2026 12:10 17,3 °C 74 % 1012,9 hPa 0,0 mm 4,6 km/h (1 Bft) W-SW 257 ° 12,6 °C 17,3 °C 11,3 km/h (2 Bft)
10.05.2026 12:05 17,3 °C 73 % 1013,0 hPa 0,0 mm 4,2 km/h (1 Bft) W 275 ° 12,4 °C 17,3 °C 9,7 km/h (2 Bft)
10.05.2026 12:00 17,2 °C 75 % 1013,0 hPa 0,0 mm 4,5 km/h (1 Bft) NW 312 ° 12,7 °C 17,2 °C 11,3 km/h (2 Bft)
10.05.2026 11:55 17,3 °C 73 % 1013,1 hPa 0,0 mm 5,3 km/h (1 Bft) W 263 ° 12,4 °C 17,3 °C 11,3 km/h (2 Bft)
10.05.2026 11:50 17,4 °C 73 % 1013,2 hPa 0,0 mm 3,8 km/h (1 Bft) N-NW 340 ° 12,5 °C 17,4 °C 8,0 km/h (2 Bft)
10.05.2026 11:45 17,3 °C 74 % 1013,2 hPa 0,0 mm 2,8 km/h (1 Bft) N-NO 13 ° 12,6 °C 17,3 °C 11,3 km/h (2 Bft)
10.05.2026 11:40 17,1 °C 74 % 1013,2 hPa 0,0 mm 3,5 km/h (1 Bft) NW 313 ° 12,4 °C 17,1 °C 6,4 km/h (2 Bft)
10.05.2026 11:35 17,0 °C 75 % 1013,2 hPa 0,0 mm 3,5 km/h (1 Bft) W 279 ° 12,5 °C 17,0 °C 11,3 km/h (2 Bft)
10.05.2026 11:30 16,8 °C 74 % 1013,3 hPa 0,0 mm 4,1 km/h (1 Bft) N-NO 32 ° 12,1 °C 16,8 °C 8,0 km/h (2 Bft)
10.05.2026 11:25 16,8 °C 75 % 1013,4 hPa 0,0 mm 3,7 km/h (1 Bft) NW 322 ° 12,3 °C 16,8 °C 8,0 km/h (2 Bft)
10.05.2026 11:20 16,7 °C 74 % 1013,3 hPa 0,0 mm 4,3 km/h (1 Bft) N 5 ° 12,0 °C 16,7 °C 8,0 km/h (2 Bft)
10.05.2026 11:15 16,6 °C 74 % 1013,4 hPa 0,0 mm 5,1 km/h (1 Bft) W-NW 291 ° 11,9 °C 16,6 °C 12,9 km/h (3 Bft)
10.05.2026 11:10 16,4 °C 76 % 1013,4 hPa 0,0 mm 4,6 km/h (1 Bft) N-NO 26 ° 12,2 °C 16,4 °C 8,0 km/h (2 Bft)
10.05.2026 11:05 16,2 °C 76 % 1013,4 hPa 0,0 mm 4,6 km/h (1 Bft) NW 308 ° 12,0 °C 16,2 °C 8,0 km/h (2 Bft)
10.05.2026 11:00 16,2 °C 75 % 1013,5 hPa 0,0 mm 4,3 km/h (1 Bft) N-NW 335 ° 11,8 °C 16,2 °C 9,7 km/h (2 Bft)
10.05.2026 10:55 16,1 °C 76 % 1013,5 hPa 0,0 mm 4,4 km/h (1 Bft) NW 324 ° 11,9 °C 16,1 °C 11,3 km/h (2 Bft)
10.05.2026 10:50 15,9 °C 76 % 1013,6 hPa 0,0 mm 4,3 km/h (1 Bft) W-NW 291 ° 11,7 °C 15,9 °C 12,9 km/h (3 Bft)
10.05.2026 10:45 15,6 °C 76 % 1013,6 hPa 0,0 mm 3,9 km/h (1 Bft) W-NW 288 ° 11,4 °C 15,6 °C 9,7 km/h (2 Bft)
10.05.2026 10:40 15,4 °C 76 % 1013,6 hPa 0,0 mm 5,0 km/h (1 Bft) W-NW 283 ° 11,2 °C 15,4 °C 8,0 km/h (2 Bft)
10.05.2026 10:35 15,4 °C 76 % 1013,7 hPa 0,0 mm 3,8 km/h (1 Bft) N 360 ° 11,2 °C 15,4 °C 9,7 km/h (2 Bft)
10.05.2026 10:30 15,3 °C 75 % 1013,6 hPa 0,0 mm 3,7 km/h (1 Bft) NW 317 ° 10,9 °C 15,3 °C 9,7 km/h (2 Bft)
10.05.2026 10:25 15,2 °C 77 % 1013,6 hPa 0,0 mm 4,4 km/h (1 Bft) N-NO 20 ° 11,2 °C 15,2 °C 11,3 km/h (2 Bft)
10.05.2026 10:20 15,1 °C 76 % 1013,7 hPa 0,0 mm 2,5 km/h (1 Bft) N-NW 338 ° 10,9 °C 15,1 °C 9,7 km/h (2 Bft)
10.05.2026 10:15 14,8 °C 76 % 1013,8 hPa 0,0 mm 3,3 km/h (1 Bft) W 281 ° 10,6 °C 14,8 °C 6,4 km/h (2 Bft)
10.05.2026 10:10 14,7 °C 77 % 1013,8 hPa 0,0 mm 2,3 km/h (1 Bft) W 281 ° 10,7 °C 14,7 °C 6,4 km/h (2 Bft)
10.05.2026 10:05 14,4 °C 77 % 1013,8 hPa 0,0 mm 2,7 km/h (1 Bft) W 281 ° 10,4 °C 14,4 °C 6,4 km/h (2 Bft)
10.05.2026 10:00 14,2 °C 77 % 1013,8 hPa 0,0 mm 2,8 km/h (1 Bft) W 279 ° 10,2 °C 14,2 °C 9,7 km/h (2 Bft)
10.05.2026 09:55 14,1 °C 78 % 1013,8 hPa 0,0 mm 2,4 km/h (1 Bft) W 281 ° 10,3 °C 14,1 °C 4,8 km/h (1 Bft)
10.05.2026 09:50 13,9 °C 79 % 1013,8 hPa 0,0 mm 2,8 km/h (1 Bft) W 281 ° 10,3 °C 13,9 °C 6,4 km/h (2 Bft)
10.05.2026 09:45 13,8 °C 78 % 1014,0 hPa 0,0 mm 3,5 km/h (1 Bft) W 281 ° 10,0 °C 13,8 °C 9,7 km/h (2 Bft)
10.05.2026 09:40 13,7 °C 81 % 1014,1 hPa 0,0 mm 4,2 km/h (1 Bft) W 280 ° 10,5 °C 13,7 °C 9,7 km/h (2 Bft)
10.05.2026 09:35 13,6 °C 81 % 1014,0 hPa 0,0 mm 3,9 km/h (1 Bft) W-NW 291 ° 10,4 °C 13,6 °C 8,0 km/h (2 Bft)
10.05.2026 09:30 13,3 °C 82 % 1014,1 hPa 0,0 mm 4,3 km/h (1 Bft) W-NW 283 ° 10,3 °C 13,3 °C 9,7 km/h (2 Bft)
10.05.2026 09:25 13,2 °C 82 % 1014,1 hPa 0,0 mm 3,8 km/h (1 Bft) W 279 ° 10,2 °C 13,2 °C 6,4 km/h (2 Bft)
10.05.2026 09:20 13,0 °C 82 % 1014,1 hPa 0,0 mm 4,5 km/h (1 Bft) W 273 ° 10,0 °C 13,0 °C 9,7 km/h (2 Bft)
10.05.2026 09:15 12,9 °C 83 % 1014,0 hPa 0,0 mm 3,4 km/h (1 Bft) W 274 ° 10,1 °C 12,9 °C 6,4 km/h (2 Bft)
10.05.2026 09:10 12,8 °C 82 % 1014,0 hPa 0,0 mm 4,4 km/h (1 Bft) W 269 ° 9,8 °C 12,8 °C 9,7 km/h (2 Bft)
10.05.2026 09:05 12,7 °C 82 % 1014,0 hPa 0,0 mm 3,3 km/h (1 Bft) W 269 ° 9,7 °C 12,7 °C 6,4 km/h (2 Bft)
10.05.2026 09:00 12,5 °C 83 % 1013,9 hPa 0,0 mm 2,7 km/h (1 Bft) W 267 ° 9,7 °C 12,5 °C 6,4 km/h (2 Bft)
10.05.2026 08:55 12,3 °C 83 % 1013,9 hPa 0,0 mm 3,6 km/h (1 Bft) W-SW 258 ° 9,5 °C 12,3 °C 6,4 km/h (2 Bft)
10.05.2026 08:50 12,3 °C 83 % 1013,9 hPa 0,0 mm 2,4 km/h (1 Bft) W-SW 257 ° 9,5 °C 12,3 °C 4,8 km/h (1 Bft)
10.05.2026 08:45 12,1 °C 83 % 1013,9 hPa 0,0 mm 3,6 km/h (1 Bft) W-SW 256 ° 9,3 °C 12,1 °C 6,4 km/h (2 Bft)
10.05.2026 08:40 12,1 °C 84 % 1013,9 hPa 0,0 mm 3,1 km/h (1 Bft) W-SW 254 ° 9,5 °C 12,1 °C 6,4 km/h (2 Bft)
10.05.2026 08:35 11,9 °C 84 % 1013,9 hPa 0,0 mm 2,0 km/h (1 Bft) W-SW 247 ° 9,3 °C 11,9 °C 4,8 km/h (1 Bft)
10.05.2026 08:30 11,8 °C 85 % 1013,7 hPa 0,0 mm 2,3 km/h (1 Bft) W-SW 246 ° 9,4 °C 11,8 °C 6,4 km/h (2 Bft)
10.05.2026 08:25 11,6 °C 85 % 1013,8 hPa 0,0 mm 2,3 km/h (1 Bft) W-SW 246 ° 9,2 °C 11,6 °C 4,8 km/h (1 Bft)
10.05.2026 08:20 11,4 °C 87 % 1013,8 hPa 0,0 mm 1,8 km/h (1 Bft) W-SW 246 ° 9,3 °C 11,4 °C 6,4 km/h (2 Bft)
10.05.2026 08:15 11,2 °C 86 % 1013,8 hPa 0,0 mm 3,6 km/h (1 Bft) W-SW 246 ° 8,9 °C 11,2 °C 8,0 km/h (2 Bft)
10.05.2026 08:10 11,1 °C 87 % 1013,8 hPa 0,0 mm 2,7 km/h (1 Bft) W-SW 238 ° 9,0 °C 11,1 °C 6,4 km/h (2 Bft)
10.05.2026 08:05 10,8 °C 89 % 1013,8 hPa 0,0 mm 2,5 km/h (1 Bft) SW 236 ° 9,1 °C 10,8 °C 4,8 km/h (1 Bft)
10.05.2026 08:00 10,4 °C 90 % 1013,9 hPa 0,0 mm 1,7 km/h (1 Bft) SW 236 ° 8,8 °C 10,4 °C 4,8 km/h (1 Bft)
10.05.2026 07:55 10,1 °C 92 % 1013,9 hPa 0,0 mm 0,5 km/h (0 Bft) SW 236 ° 8,9 °C 10,1 °C 3,2 km/h (1 Bft)
10.05.2026 07:50 9,8 °C 92 % 1013,9 hPa 0,0 mm 0,1 km/h (0 Bft) SW 236 ° 8,6 °C 9,8 °C 1,6 km/h (1 Bft)
10.05.2026 07:45 9,5 °C 93 % 1014,0 hPa 0,0 mm 0,0 km/h (0 Bft) SW 236 ° 8,4 °C 9,5 °C 0,0 km/h (0 Bft)
10.05.2026 07:40 9,2 °C 93 % 1013,9 hPa 0,0 mm 0,0 km/h (0 Bft) SW 236 ° 8,1 °C 9,2 °C 0,0 km/h (0 Bft)
10.05.2026 07:35 8,9 °C 93 % 1013,9 hPa 0,0 mm 0,0 km/h (0 Bft) SW 236 ° 7,8 °C 8,9 °C 0,0 km/h (0 Bft)
10.05.2026 07:30 8,8 °C 92 % 1014,0 hPa 0,0 mm 0,0 km/h (0 Bft) SW 236 ° 7,6 °C 8,8 °C 0,0 km/h (0 Bft)
10.05.2026 07:25 8,6 °C 92 % 1014,0 hPa 0,0 mm 0,0 km/h (0 Bft) SW 236 ° 7,4 °C 8,6 °C 0,0 km/h (0 Bft)
10.05.2026 07:20 8,5 °C 92 % 1013,9 hPa 0,0 mm 0,0 km/h (0 Bft) SW 236 ° 7,3 °C 8,5 °C 0,0 km/h (0 Bft)
10.05.2026 07:15 8,4 °C 92 % 1013,9 hPa 0,0 mm 0,0 km/h (0 Bft) SW 236 ° 7,2 °C 8,4 °C 0,0 km/h (0 Bft)
10.05.2026 07:10 8,2 °C 93 % 1013,9 hPa 0,0 mm 0,0 km/h (0 Bft) SW 236 ° 7,1 °C 8,2 °C 0,0 km/h (0 Bft)
10.05.2026 07:05 8,1 °C 92 % 1013,9 hPa 0,0 mm 0,0 km/h (0 Bft) SW 236 ° 6,9 °C 8,1 °C 0,0 km/h (0 Bft)
10.05.2026 07:00 7,9 °C 92 % 1014,0 hPa 0,0 mm 0,0 km/h (0 Bft) SW 236 ° 6,7 °C 7,9 °C 0,0 km/h (0 Bft)
10.05.2026 06:55 7,9 °C 92 % 1013,9 hPa 0,0 mm 0,0 km/h (0 Bft) SW 236 ° 6,7 °C 7,9 °C 0,0 km/h (0 Bft)
10.05.2026 06:50 7,9 °C 92 % 1013,9 hPa 0,0 mm 0,0 km/h (0 Bft) SW 236 ° 6,7 °C 7,9 °C 0,0 km/h (0 Bft)
10.05.2026 06:45 7,8 °C 92 % 1013,9 hPa 0,0 mm 0,0 km/h (0 Bft) SW 236 ° 6,6 °C 7,8 °C 0,0 km/h (0 Bft)
10.05.2026 06:40 7,8 °C 92 % 1013,9 hPa 0,0 mm 0,0 km/h (0 Bft) SW 236 ° 6,6 °C 7,8 °C 0,0 km/h (0 Bft)
10.05.2026 06:35 7,7 °C 92 % 1013,9 hPa 0,0 mm 0,0 km/h (0 Bft) SW 236 ° 6,5 °C 7,7 °C 0,0 km/h (0 Bft)
10.05.2026 06:30 7,7 °C 91 % 1014,0 hPa 0,0 mm 0,0 km/h (0 Bft) SW 236 ° 6,3 °C 7,7 °C 0,0 km/h (0 Bft)
10.05.2026 06:25 7,7 °C 91 % 1014,1 hPa 0,0 mm 0,0 km/h (0 Bft) SW 236 ° 6,3 °C 7,7 °C 0,0 km/h (0 Bft)
10.05.2026 06:20 7,6 °C 91 % 1014,1 hPa 0,0 mm 0,0 km/h (0 Bft) SW 236 ° 6,2 °C 7,6 °C 0,0 km/h (0 Bft)
10.05.2026 06:15 7,6 °C 91 % 1014,1 hPa 0,0 mm 0,0 km/h (0 Bft) SW 236 ° 6,2 °C 7,6 °C 0,0 km/h (0 Bft)
10.05.2026 06:10 7,7 °C 91 % 1014,1 hPa 0,0 mm 0,0 km/h (0 Bft) SW 236 ° 6,3 °C 7,7 °C 0,0 km/h (0 Bft)
10.05.2026 06:05 7,7 °C 91 % 1014,2 hPa 0,0 mm 0,0 km/h (0 Bft) SW 236 ° 6,3 °C 7,7 °C 0,0 km/h (0 Bft)
10.05.2026 06:00 7,7 °C 91 % 1014,1 hPa 0,0 mm 0,0 km/h (0 Bft) SW 236 ° 6,3 °C 7,7 °C 0,0 km/h (0 Bft)
10.05.2026 05:55 7,8 °C 91 % 1014,1 hPa 0,0 mm 0,0 km/h (0 Bft) SW 236 ° 6,4 °C 7,8 °C 0,0 km/h (0 Bft)
10.05.2026 05:50 7,8 °C 90 % 1014,1 hPa 0,0 mm 0,0 km/h (0 Bft) SW 236 ° 6,3 °C 7,8 °C 0,0 km/h (0 Bft)
10.05.2026 05:45 7,8 °C 90 % 1014,2 hPa 0,0 mm 0,0 km/h (0 Bft) SW 236 ° 6,3 °C 7,8 °C 0,0 km/h (0 Bft)
10.05.2026 05:40 7,8 °C 90 % 1014,3 hPa 0,0 mm 0,0 km/h (0 Bft) SW 236 ° 6,3 °C 7,8 °C 0,0 km/h (0 Bft)
10.05.2026 05:35 7,9 °C 89 % 1014,3 hPa 0,0 mm 0,0 km/h (0 Bft) SW 236 ° 6,2 °C 7,9 °C 0,0 km/h (0 Bft)
10.05.2026 05:30 7,9 °C 89 % 1014,3 hPa 0,0 mm 0,0 km/h (0 Bft) SW 236 ° 6,2 °C 7,9 °C 0,0 km/h (0 Bft)
10.05.2026 05:25 8,1 °C 89 % 1014,3 hPa 0,0 mm 0,0 km/h (0 Bft) SW 236 ° 6,4 °C 8,1 °C 0,0 km/h (0 Bft)
10.05.2026 05:20 8,2 °C 89 % 1014,2 hPa 0,0 mm 0,0 km/h (0 Bft) SW 236 ° 6,5 °C 8,2 °C 0,0 km/h (0 Bft)
10.05.2026 05:15 8,2 °C 89 % 1014,4 hPa 0,0 mm 0,0 km/h (0 Bft) SW 236 ° 6,5 °C 8,2 °C 0,0 km/h (0 Bft)
10.05.2026 05:10 8,3 °C 89 % 1014,3 hPa 0,0 mm 0,0 km/h (0 Bft) SW 236 ° 6,6 °C 8,3 °C 0,0 km/h (0 Bft)
10.05.2026 05:05 8,4 °C 89 % 1014,4 hPa 0,0 mm 0,0 km/h (0 Bft) SW 236 ° 6,7 °C 8,4 °C 0,0 km/h (0 Bft)
10.05.2026 05:00 8,5 °C 89 % 1014,5 hPa 0,0 mm 0,0 km/h (0 Bft) SW 236 ° 6,8 °C 8,5 °C 0,0 km/h (0 Bft)
10.05.2026 04:55 8,5 °C 89 % 1014,5 hPa 0,0 mm 0,0 km/h (0 Bft) SW 236 ° 6,8 °C 8,5 °C 0,0 km/h (0 Bft)
10.05.2026 04:50 8,6 °C 89 % 1014,5 hPa 0,0 mm 0,0 km/h (0 Bft) SW 236 ° 6,9 °C 8,6 °C 0,0 km/h (0 Bft)
10.05.2026 04:45 8,6 °C 88 % 1014,4 hPa 0,0 mm 0,0 km/h (0 Bft) SW 236 ° 6,7 °C 8,6 °C 0,0 km/h (0 Bft)
10.05.2026 04:40 8,7 °C 88 % 1014,6 hPa 0,0 mm 0,0 km/h (0 Bft) SW 236 ° 6,8 °C 8,7 °C 0,0 km/h (0 Bft)
10.05.2026 04:35 8,7 °C 88 % 1014,6 hPa 0,0 mm 0,0 km/h (0 Bft) SW 236 ° 6,8 °C 8,7 °C 0,0 km/h (0 Bft)
10.05.2026 04:30 8,8 °C 89 % 1014,6 hPa 0,0 mm 0,0 km/h (0 Bft) SW 236 ° 7,1 °C 8,8 °C 0,0 km/h (0 Bft)
10.05.2026 04:25 8,8 °C 88 % 1014,6 hPa 0,0 mm 0,0 km/h (0 Bft) SW 236 ° 6,9 °C 8,8 °C 0,0 km/h (0 Bft)
10.05.2026 04:20 8,8 °C 88 % 1014,7 hPa 0,0 mm 0,0 km/h (0 Bft) SW 236 ° 6,9 °C 8,8 °C 0,0 km/h (0 Bft)
10.05.2026 04:15 8,8 °C 88 % 1014,7 hPa 0,0 mm 0,0 km/h (0 Bft) SW 236 ° 6,9 °C 8,8 °C 0,0 km/h (0 Bft)
10.05.2026 04:10 8,7 °C 88 % 1014,6 hPa 0,0 mm 0,0 km/h (0 Bft) SW 236 ° 6,8 °C 8,7 °C 0,0 km/h (0 Bft)
10.05.2026 04:05 8,7 °C 87 % 1014,8 hPa 0,0 mm 0,0 km/h (0 Bft) SW 236 ° 6,7 °C 8,7 °C 0,0 km/h (0 Bft)
10.05.2026 04:00 8,7 °C 86 % 1014,9 hPa 0,0 mm 0,0 km/h (0 Bft) SW 236 ° 6,5 °C 8,7 °C 0,0 km/h (0 Bft)
10.05.2026 03:55 8,7 °C 86 % 1014,9 hPa 0,0 mm 0,0 km/h (0 Bft) SW 236 ° 6,5 °C 8,7 °C 0,0 km/h (0 Bft)
10.05.2026 03:50 8,8 °C 86 % 1014,8 hPa 0,0 mm 0,0 km/h (0 Bft) SW 236 ° 6,6 °C 8,8 °C 0,0 km/h (0 Bft)
10.05.2026 03:45 9,0 °C 86 % 1014,7 hPa 0,0 mm 0,0 km/h (0 Bft) SW 236 ° 6,8 °C 9,0 °C 0,0 km/h (0 Bft)
10.05.2026 03:40 9,1 °C 85 % 1014,8 hPa 0,0 mm 0,0 km/h (0 Bft) SW 236 ° 6,7 °C 9,1 °C 0,0 km/h (0 Bft)
10.05.2026 03:35 9,2 °C 85 % 1014,8 hPa 0,0 mm 0,0 km/h (0 Bft) SW 236 ° 6,8 °C 9,2 °C 0,0 km/h (0 Bft)
10.05.2026 03:30 9,3 °C 85 % 1014,8 hPa 0,0 mm 0,0 km/h (0 Bft) SW 236 ° 6,9 °C 9,3 °C 0,0 km/h (0 Bft)
10.05.2026 03:25 9,5 °C 84 % 1014,7 hPa 0,0 mm 0,0 km/h (0 Bft) SW 236 ° 6,9 °C 9,5 °C 0,0 km/h (0 Bft)
10.05.2026 03:20 9,6 °C 84 % 1014,8 hPa 0,0 mm 0,0 km/h (0 Bft) SW 236 ° 7,0 °C 9,6 °C 0,0 km/h (0 Bft)
10.05.2026 03:15 9,8 °C 84 % 1014,8 hPa 0,0 mm 0,0 km/h (0 Bft) SW 236 ° 7,2 °C 9,8 °C 0,0 km/h (0 Bft)
10.05.2026 03:10 10,0 °C 83 % 1014,7 hPa 0,0 mm 0,0 km/h (0 Bft) SW 236 ° 7,2 °C 10,0 °C 0,0 km/h (0 Bft)
10.05.2026 03:05 10,1 °C 83 % 1014,7 hPa 0,0 mm 0,0 km/h (0 Bft) SW 236 ° 7,3 °C 10,1 °C 0,0 km/h (0 Bft)
10.05.2026 03:00 10,3 °C 82 % 1014,8 hPa 0,0 mm 0,0 km/h (0 Bft) SW 236 ° 7,4 °C 10,3 °C 0,0 km/h (0 Bft)
10.05.2026 02:55 10,4 °C 81 % 1014,7 hPa 0,0 mm 0,0 km/h (0 Bft) SW 236 ° 7,3 °C 10,4 °C 0,0 km/h (0 Bft)
10.05.2026 02:50 10,6 °C 81 % 1014,7 hPa 0,0 mm 0,0 km/h (0 Bft) SW 236 ° 7,5 °C 10,6 °C 0,0 km/h (0 Bft)
10.05.2026 02:45 10,8 °C 80 % 1014,8 hPa 0,0 mm 0,0 km/h (0 Bft) SW 236 ° 7,5 °C 10,8 °C 0,0 km/h (0 Bft)
10.05.2026 02:40 10,9 °C 80 % 1014,8 hPa 0,0 mm 0,0 km/h (0 Bft) SW 236 ° 7,6 °C 10,9 °C 0,0 km/h (0 Bft)
10.05.2026 02:35 11,1 °C 79 % 1014,8 hPa 0,0 mm 0,0 km/h (0 Bft) SW 236 ° 7,6 °C 11,1 °C 0,0 km/h (0 Bft)
10.05.2026 02:30 11,3 °C 79 % 1014,8 hPa 0,0 mm 0,0 km/h (0 Bft) SW 236 ° 7,8 °C 11,3 °C 0,0 km/h (0 Bft)
10.05.2026 02:25 11,3 °C 79 % 1015,0 hPa 0,0 mm 0,0 km/h (0 Bft) SW 236 ° 7,8 °C 11,3 °C 0,0 km/h (0 Bft)
10.05.2026 02:20 11,4 °C 78 % 1014,9 hPa 0,0 mm 0,0 km/h (0 Bft) SW 236 ° 7,7 °C 11,4 °C 0,0 km/h (0 Bft)
10.05.2026 02:15 11,5 °C 78 % 1015,1 hPa 0,0 mm 0,7 km/h (0 Bft) SW 236 ° 7,8 °C 11,5 °C 3,2 km/h (1 Bft)
10.05.2026 02:10 11,6 °C 78 % 1015,2 hPa 0,0 mm 1,4 km/h (1 Bft) SW 236 ° 7,9 °C 11,6 °C 3,2 km/h (1 Bft)
10.05.2026 02:05 11,6 °C 78 % 1015,3 hPa 0,0 mm 1,8 km/h (1 Bft) SW 236 ° 7,9 °C 11,6 °C 6,4 km/h (2 Bft)
10.05.2026 02:00 11,6 °C 78 % 1015,3 hPa 0,0 mm 2,3 km/h (1 Bft) SW 236 ° 7,9 °C 11,6 °C 4,8 km/h (1 Bft)
10.05.2026 01:55 11,6 °C 78 % 1015,3 hPa 0,0 mm 2,4 km/h (1 Bft) SW 236 ° 7,9 °C 11,6 °C 4,8 km/h (1 Bft)
10.05.2026 01:50 11,5 °C 78 % 1015,3 hPa 0,0 mm 2,6 km/h (1 Bft) SW 236 ° 7,8 °C 11,5 °C 4,8 km/h (1 Bft)
10.05.2026 01:45 11,4 °C 79 % 1015,3 hPa 0,0 mm 2,8 km/h (1 Bft) SW 236 ° 7,9 °C 11,4 °C 4,8 km/h (1 Bft)
10.05.2026 01:40 11,4 °C 79 % 1015,3 hPa 0,0 mm 2,3 km/h (1 Bft) SW 236 ° 7,9 °C 11,4 °C 4,8 km/h (1 Bft)
10.05.2026 01:35 11,4 °C 79 % 1015,4 hPa 0,0 mm 2,4 km/h (1 Bft) SW 236 ° 7,9 °C 11,4 °C 4,8 km/h (1 Bft)
10.05.2026 01:30 11,4 °C 79 % 1015,4 hPa 0,0 mm 2,0 km/h (1 Bft) SW 236 ° 7,9 °C 11,4 °C 4,8 km/h (1 Bft)
10.05.2026 01:25 11,5 °C 78 % 1015,4 hPa 0,0 mm 1,9 km/h (1 Bft) SW 236 ° 7,8 °C 11,5 °C 4,8 km/h (1 Bft)
10.05.2026 01:20 11,5 °C 78 % 1015,5 hPa 0,0 mm 2,3 km/h (1 Bft) SW 236 ° 7,8 °C 11,5 °C 4,8 km/h (1 Bft)
10.05.2026 01:15 11,5 °C 78 % 1015,5 hPa 0,0 mm 2,9 km/h (1 Bft) SW 236 ° 7,8 °C 11,5 °C 6,4 km/h (2 Bft)
10.05.2026 01:10 11,6 °C 78 % 1015,5 hPa 0,0 mm 3,4 km/h (1 Bft) SW 235 ° 7,9 °C 11,6 °C 6,4 km/h (2 Bft)
10.05.2026 01:05 11,7 °C 78 % 1015,6 hPa 0,0 mm 3,4 km/h (1 Bft) SW 231 ° 8,0 °C 11,7 °C 4,8 km/h (1 Bft)
10.05.2026 01:00 11,7 °C 78 % 1015,7 hPa 0,0 mm 2,6 km/h (1 Bft) SW 230 ° 8,0 °C 11,7 °C 4,8 km/h (1 Bft)
10.05.2026 00:55 11,8 °C 77 % 1015,7 hPa 0,0 mm 3,1 km/h (1 Bft) SW 229 ° 7,9 °C 11,8 °C 6,4 km/h (2 Bft)
10.05.2026 00:50 11,8 °C 77 % 1015,5 hPa 0,0 mm 2,4 km/h (1 Bft) SW 230 ° 7,9 °C 11,8 °C 4,8 km/h (1 Bft)
10.05.2026 00:45 11,9 °C 77 % 1015,7 hPa 0,0 mm 3,3 km/h (1 Bft) SW 229 ° 8,0 °C 11,9 °C 6,4 km/h (2 Bft)
10.05.2026 00:40 11,9 °C 77 % 1015,6 hPa 0,0 mm 3,3 km/h (1 Bft) SW 229 ° 8,0 °C 11,9 °C 6,4 km/h (2 Bft)
10.05.2026 00:35 12,0 °C 77 % 1015,7 hPa 0,0 mm 3,5 km/h (1 Bft) SW 229 ° 8,1 °C 12,0 °C 6,4 km/h (2 Bft)
10.05.2026 00:30 12,1 °C 76 % 1015,7 hPa 0,0 mm 2,6 km/h (1 Bft) SW 229 ° 8,0 °C 12,1 °C 6,4 km/h (2 Bft)
10.05.2026 00:25 12,1 °C 76 % 1015,7 hPa 0,0 mm 3,6 km/h (1 Bft) SW 228 ° 8,0 °C 12,1 °C 6,4 km/h (2 Bft)
10.05.2026 00:20 12,1 °C 77 % 1015,8 hPa 0,0 mm 3,2 km/h (1 Bft) SW 227 ° 8,2 °C 12,1 °C 4,8 km/h (1 Bft)
10.05.2026 00:15 12,2 °C 77 % 1015,8 hPa 0,0 mm 2,5 km/h (1 Bft) SW 227 ° 8,3 °C 12,2 °C 4,8 km/h (1 Bft)
10.05.2026 00:10 12,3 °C 76 % 1015,7 hPa 0,0 mm 2,9 km/h (1 Bft) SW 226 ° 8,2 °C 12,3 °C 6,4 km/h (2 Bft)
10.05.2026 00:05 12,4 °C 76 % 1015,7 hPa 0,0 mm 1,7 km/h (1 Bft) S-SW 198 ° 8,3 °C 12,4 °C 4,8 km/h (1 Bft)
10.05.2026 00:00 12,7 °C 76 % 1015,8 hPa 0,0 mm 0,4 km/h (0 Bft) S-SW 198 ° 8,6 °C 12,7 °C 3,2 km/h (1 Bft)
09.05.2026 23:55 12,8 °C 75 % 1015,7 hPa 0,0 mm 0,4 km/h (0 Bft) S-SW 198 ° 8,5 °C 12,8 °C 3,2 km/h (1 Bft)
09.05.2026 23:50 12,8 °C 75 % 1015,8 hPa 0,0 mm 1,6 km/h (1 Bft) S-SW 198 ° 8,5 °C 12,8 °C 6,4 km/h (2 Bft)
09.05.2026 23:45 12,8 °C 75 % 1015,9 hPa 0,0 mm 3,1 km/h (1 Bft) S-SW 198 ° 8,5 °C 12,8 °C 6,4 km/h (2 Bft)
09.05.2026 23:40 12,8 °C 75 % 1015,9 hPa 0,0 mm 2,3 km/h (1 Bft) S-SW 196 ° 8,5 °C 12,8 °C 4,8 km/h (1 Bft)
09.05.2026 23:35 12,9 °C 75 % 1016,0 hPa 0,0 mm 2,1 km/h (1 Bft) S-SW 194 ° 8,6 °C 12,9 °C 4,8 km/h (1 Bft)
09.05.2026 23:30 12,8 °C 75 % 1016,0 hPa 0,0 mm 0,2 km/h (0 Bft) S 187 ° 8,5 °C 12,8 °C 4,8 km/h (1 Bft)
09.05.2026 23:25 12,9 °C 75 % 1016,1 hPa 0,0 mm 0,0 km/h (0 Bft) S 170 ° 8,6 °C 12,9 °C 0,0 km/h (0 Bft)
09.05.2026 23:20 12,9 °C 75 % 1016,2 hPa 0,0 mm 0,0 km/h (0 Bft) S 170 ° 8,6 °C 12,9 °C 0,0 km/h (0 Bft)
09.05.2026 23:15 13,0 °C 75 % 1016,1 hPa 0,0 mm 0,0 km/h (0 Bft) S 170 ° 8,7 °C 13,0 °C 0,0 km/h (0 Bft)
09.05.2026 23:10 13,1 °C 75 % 1016,2 hPa 0,0 mm 0,0 km/h (0 Bft) S 169 ° 8,8 °C 13,1 °C 0,0 km/h (0 Bft)
09.05.2026 23:05 13,1 °C 75 % 1016,0 hPa 0,0 mm 0,0 km/h (0 Bft) S-SO 167 ° 8,8 °C 13,1 °C 0,0 km/h (0 Bft)
09.05.2026 23:00 13,2 °C 75 % 1015,9 hPa 0,0 mm 0,0 km/h (0 Bft) S-SO 167 ° 8,9 °C 13,2 °C 0,0 km/h (0 Bft)
09.05.2026 22:55 13,4 °C 75 % 1016,1 hPa 0,0 mm 0,0 km/h (0 Bft) S-SO 167 ° 9,1 °C 13,4 °C 0,0 km/h (0 Bft)
09.05.2026 22:50 13,6 °C 74 % 1016,1 hPa 0,0 mm 0,0 km/h (0 Bft) S-SO 167 ° 9,1 °C 13,6 °C 0,0 km/h (0 Bft)
09.05.2026 22:45 13,7 °C 74 % 1016,1 hPa 0,0 mm 0,4 km/h (0 Bft) S-SO 167 ° 9,2 °C 13,7 °C 4,8 km/h (1 Bft)
09.05.2026 22:40 13,7 °C 73 % 1016,0 hPa 0,0 mm 4,6 km/h (1 Bft) S-SO 167 ° 8,9 °C 13,7 °C 8,0 km/h (2 Bft)
09.05.2026 22:35 13,7 °C 73 % 1016,1 hPa 0,0 mm 2,3 km/h (1 Bft) S-SO 156 ° 8,9 °C 13,7 °C 4,8 km/h (1 Bft)
09.05.2026 22:30 13,7 °C 74 % 1016,1 hPa 0,0 mm 1,1 km/h (1 Bft) S-SO 155 ° 9,2 °C 13,7 °C 4,8 km/h (1 Bft)
09.05.2026 22:25 13,7 °C 74 % 1016,1 hPa 0,0 mm 2,3 km/h (1 Bft) S-SO 155 ° 9,2 °C 13,7 °C 6,4 km/h (2 Bft)
09.05.2026 22:20 13,7 °C 75 % 1016,0 hPa 0,0 mm 2,3 km/h (1 Bft) S-SO 153 ° 9,3 °C 13,7 °C 6,4 km/h (2 Bft)
09.05.2026 22:15 13,7 °C 76 % 1016,0 hPa 0,0 mm 0,1 km/h (0 Bft) SO 126 ° 9,5 °C 13,7 °C 3,2 km/h (1 Bft)
09.05.2026 22:10 13,8 °C 76 % 1016,1 hPa 0,0 mm 1,4 km/h (1 Bft) SO 126 ° 9,6 °C 13,8 °C 3,2 km/h (1 Bft)
09.05.2026 22:05 14,0 °C 76 % 1016,0 hPa 0,0 mm 2,3 km/h (1 Bft) SO 126 ° 9,8 °C 14,0 °C 3,2 km/h (1 Bft)
09.05.2026 22:00 14,2 °C 75 % 1015,9 hPa 0,0 mm 1,4 km/h (1 Bft) SO 126 ° 9,8 °C 14,2 °C 4,8 km/h (1 Bft)
09.05.2026 21:55 14,4 °C 75 % 1016,0 hPa 0,0 mm 2,6 km/h (1 Bft) SO 124 ° 10,0 °C 14,4 °C 4,8 km/h (1 Bft)
09.05.2026 21:50 14,8 °C 75 % 1015,8 hPa 0,0 mm 3,0 km/h (1 Bft) O-SO 123 ° 10,4 °C 14,8 °C 6,4 km/h (2 Bft)
09.05.2026 21:45 15,2 °C 74 % 1015,8 hPa 0,0 mm 1,1 km/h (1 Bft) O-SO 119 ° 10,6 °C 15,2 °C 3,2 km/h (1 Bft)
09.05.2026 21:40 15,6 °C 74 % 1015,7 hPa 0,0 mm 2,2 km/h (1 Bft) O-SO 119 ° 11,0 °C 15,6 °C 4,8 km/h (1 Bft)
09.05.2026 21:35 16,2 °C 72 % 1015,6 hPa 0,0 mm 1,7 km/h (1 Bft) O-SO 119 ° 11,1 °C 16,2 °C 3,2 km/h (1 Bft)
09.05.2026 21:30 16,6 °C 71 % 1015,5 hPa 0,0 mm 0,6 km/h (0 Bft) O-SO 119 ° 11,3 °C 16,6 °C 3,2 km/h (1 Bft)
09.05.2026 21:25 17,0 °C 70 % 1015,5 hPa 0,0 mm 0,0 km/h (0 Bft) O-SO 119 ° 11,5 °C 17,0 °C 1,6 km/h (1 Bft)
09.05.2026 21:20 17,3 °C 69 % 1015,3 hPa 0,0 mm 0,0 km/h (0 Bft) O-SO 119 ° 11,6 °C 17,3 °C 0,0 km/h (0 Bft)
09.05.2026 21:15 17,5 °C 67 % 1015,3 hPa 0,0 mm 0,0 km/h (0 Bft) O-SO 119 ° 11,3 °C 17,5 °C 0,0 km/h (0 Bft)
09.05.2026 21:10 17,9 °C 66 % 1015,5 hPa 0,0 mm 1,3 km/h (1 Bft) O-SO 119 ° 11,5 °C 17,9 °C 4,8 km/h (1 Bft)
09.05.2026 21:05 18,6 °C 65 % 1015,6 hPa 0,0 mm 0,7 km/h (0 Bft) O-SO 118 ° 11,9 °C 18,6 °C 3,2 km/h (1 Bft)
09.05.2026 21:00 19,2 °C 62 % 1015,5 hPa 0,0 mm 0,2 km/h (0 Bft) O-SO 118 ° 11,7 °C 19,2 °C 1,6 km/h (1 Bft)
09.05.2026 20:55 19,6 °C 57 % 1015,5 hPa 0,0 mm 0,0 km/h (0 Bft) O-SO 118 ° 10,8 °C 19,6 °C 1,6 km/h (1 Bft)
09.05.2026 20:50 19,9 °C 55 % 1015,4 hPa 0,0 mm 0,4 km/h (0 Bft) O-SO 118 ° 10,6 °C 19,9 °C 3,2 km/h (1 Bft)
09.05.2026 20:45 20,1 °C 53 % 1015,4 hPa 0,0 mm 0,8 km/h (0 Bft) O-SO 117 ° 10,2 °C 20,1 °C 3,2 km/h (1 Bft)
09.05.2026 20:40 20,3 °C 52 % 1015,4 hPa 0,0 mm 2,0 km/h (1 Bft) O-SO 117 ° 10,1 °C 20,3 °C 4,8 km/h (1 Bft)
09.05.2026 20:35 20,4 °C 51 % 1015,3 hPa 0,0 mm 0,0 km/h (0 Bft) O-SO 118 ° 9,9 °C 20,4 °C 1,6 km/h (1 Bft)
09.05.2026 20:30 20,5 °C 51 % 1015,3 hPa 0,0 mm 1,4 km/h (1 Bft) O-SO 118 ° 10,0 °C 20,5 °C 4,8 km/h (1 Bft)
09.05.2026 20:25 20,7 °C 50 % 1015,3 hPa 0,0 mm 1,8 km/h (1 Bft) O-SO 118 ° 9,9 °C 20,7 °C 4,8 km/h (1 Bft)
09.05.2026 20:20 20,9 °C 48 % 1015,2 hPa 0,0 mm 2,1 km/h (1 Bft) O-SO 118 ° 9,5 °C 20,9 °C 6,4 km/h (2 Bft)
09.05.2026 20:15 21,1 °C 48 % 1015,2 hPa 0,0 mm 1,8 km/h (1 Bft) O-SO 118 ° 9,7 °C 21,1 °C 4,8 km/h (1 Bft)
09.05.2026 20:10 21,3 °C 48 % 1015,1 hPa 0,0 mm 1,4 km/h (1 Bft) O-SO 118 ° 9,8 °C 21,3 °C 4,8 km/h (1 Bft)
09.05.2026 20:05 21,4 °C 47 % 1015,1 hPa 0,0 mm 1,4 km/h (1 Bft) O-SO 118 ° 9,6 °C 21,4 °C 4,8 km/h (1 Bft)
09.05.2026 20:00 21,6 °C 47 % 1015,1 hPa 0,0 mm 1,9 km/h (1 Bft) O-SO 118 ° 9,8 °C 21,6 °C 4,8 km/h (1 Bft)
_ Min-Zeit 06:10 20:00 19:45 - 20:35 - - 05:30 06:15 21:15
Minimum _ 7,6 °C 47 % 1007,8 hPa - 0,0 km/h (0 Bft) - - 6,2 °C 7,6 °C 0,0 km/h (0 Bft)
_ Max-Zeit 20:00 07:10 23:10 20:00 16:15 - - 13:10 20:00 16:25
Maximum _ 21,8 °C 93 % 1016,2 hPa 0,0 mm 8,2 km/h
NW (2 Bft)
- - 12,8 °C 21,6 °C 19,3 km/h
N-NW (3 Bft)
Durchschnitt _ 15,2 °C 72 % 1013,4 hPa #0,0 mm 2,5 km/h (1 Bft) N-NW - 9,8 °C 15,2 °C 6,0 km/h (2 Bft)